createdAt,value
2022-08-05T00:01:56.701Z,44.12
2022-08-05T00:06:02.039Z,43.84
2022-08-05T00:08:34.967Z,44.10
2022-08-05T00:11:49.352Z,43.78
2022-08-05T00:14:58.035Z,44.42
2022-08-05T00:18:02.545Z,43.83
2022-08-05T00:21:06.499Z,43.97
2022-08-05T00:24:19.004Z,44.36
2022-08-05T00:27:35.624Z,43.96
2022-08-05T00:30:38.788Z,44.17
2022-08-05T00:34:53.628Z,45.92
2022-08-05T00:37:11.667Z,45.25
2022-08-05T00:40:17.893Z,45.38
2022-08-05T00:43:31.539Z,45.38
2022-08-05T00:46:54.279Z,45.65
2022-08-05T00:50:04.977Z,46.38
2022-08-05T00:53:09.751Z,45.73
2022-08-05T00:56:30.163Z,45.98
2022-08-05T00:59:42.088Z,47.06
2022-08-05T01:02:47.184Z,46.50
2022-08-05T01:05:54.508Z,47.12
2022-08-05T01:08:57.307Z,46.52
2022-08-05T01:12:18.720Z,46.89
2022-08-05T01:15:36.064Z,46.12
2022-08-05T01:18:43.469Z,46.92
2022-08-05T01:22:24.110Z,46.52
2022-08-05T01:25:54.865Z,46.68
2022-08-05T01:29:04.250Z,47.46
2022-08-05T01:32:12.370Z,47.93
2022-08-05T01:35:51.940Z,47.45
2022-08-05T01:38:49.889Z,47.35
2022-08-05T01:41:54.556Z,47.10
2022-08-05T01:45:02.302Z,47.82
2022-08-05T01:48:10.469Z,47.84
2022-08-05T01:51:14.713Z,47.81
2022-08-05T01:54:25.482Z,48.71
2022-08-05T01:58:10.211Z,48.80
2022-08-05T02:00:57.849Z,48.97
2022-08-05T02:04:02.818Z,48.21
2022-08-05T02:07:06.153Z,47.77
2022-08-05T02:10:10.224Z,48.70
2022-08-05T02:13:36.484Z,48.96
2022-08-05T02:16:53.409Z,49.47
2022-08-05T02:20:00.544Z,48.39
2022-08-05T02:23:11.549Z,48.77
2022-08-05T02:26:19.042Z,48.44
2022-08-05T02:29:58.730Z,48.49
2022-08-05T02:32:54.227Z,47.77
2022-08-05T02:36:01.343Z,49.02
2022-08-05T02:39:08.623Z,48.41
2022-08-05T02:42:11.893Z,47.40
2022-08-05T02:45:52.848Z,48.46
2022-08-05T02:48:53.707Z,47.77
2022-08-05T02:52:03.011Z,47.71
2022-08-05T02:55:10.870Z,47.55
2022-08-05T02:58:16.547Z,48.63
2022-08-05T03:01:27.040Z,50.09
2022-08-05T03:04:29.895Z,48.70
2022-08-05T03:07:59.298Z,48.49
2022-08-05T03:11:02.311Z,48.51
2022-08-05T03:14:18.558Z,48.44
2022-08-05T03:17:21.572Z,48.66
2022-08-05T03:20:24.833Z,49.24
2022-08-05T03:23:27.982Z,49.49
2022-08-05T03:26:32.703Z,49.72
2022-08-05T03:29:45.423Z,50.61
2022-08-05T03:32:58.289Z,50.49
2022-08-05T03:36:01.516Z,51.61
2022-08-05T03:39:19.858Z,51.89
2022-08-05T03:42:31.998Z,51.66
2022-08-05T03:45:58.264Z,51.81
2022-08-05T03:48:58.506Z,52.13
2022-08-05T03:52:48.602Z,52.70
2022-08-05T03:56:00.760Z,53.31
2022-08-05T03:59:01.760Z,53.08
2022-08-05T04:02:05.385Z,53.13
2022-08-05T04:05:10.219Z,53.65
2022-08-05T04:08:14.560Z,53.63
2022-08-05T04:11:50.583Z,54.08
2022-08-05T04:14:54.708Z,55.05
2022-08-05T04:18:06.626Z,55.00
2022-08-05T04:21:10.905Z,54.92
2022-08-05T04:24:14.252Z,55.09
2022-08-05T04:27:33.092Z,55.28
2022-08-05T04:30:45.147Z,55.54
2022-08-05T04:34:19.341Z,56.13
2022-08-05T04:37:10.433Z,56.21
2022-08-05T04:40:13.010Z,56.05
2022-08-05T04:43:21.878Z,56.40
2022-08-05T04:46:28.345Z,56.70
2022-08-05T04:49:38.400Z,56.60
2022-08-05T04:52:53.196Z,56.88
2022-08-05T04:56:14.311Z,57.32
2022-08-05T04:59:23.877Z,57.33
2022-08-05T05:02:41.534Z,56.68
2022-08-05T05:06:39.617Z,56.75
2022-08-05T05:09:07.630Z,56.89
2022-08-05T05:12:09.795Z,56.54
2022-08-05T05:15:14.012Z,56.63
2022-08-05T05:18:28.370Z,56.59
2022-08-05T05:21:35.662Z,55.84
2022-08-05T05:24:57.067Z,55.68
2022-08-05T05:28:00.171Z,56.47
2022-08-05T05:31:02.316Z,55.64
2022-08-05T05:34:08.211Z,55.70
2022-08-05T05:37:12.565Z,55.85
2022-08-05T05:40:20.520Z,55.42
2022-08-05T05:43:57.193Z,54.85
2022-08-05T05:46:51.070Z,55.05
2022-08-05T05:49:56.788Z,54.78
2022-08-05T05:52:59.455Z,54.60
2022-08-05T05:56:03.118Z,53.97
2022-08-05T05:59:07.876Z,53.57
2022-08-05T06:02:10.216Z,53.42
2022-08-05T06:05:16.392Z,53.40
2022-08-05T06:08:32.732Z,54.08
2022-08-05T06:11:35.703Z,53.28
2022-08-05T06:14:44.390Z,52.36
2022-08-05T06:17:53.586Z,53.08
2022-08-05T06:20:57.370Z,51.90
2022-08-05T06:23:59.736Z,50.48
2022-08-05T06:27:04.260Z,49.11
2022-08-05T06:30:19.957Z,49.25
2022-08-05T06:33:33.159Z,49.16
2022-08-05T06:36:57.014Z,47.93
2022-08-05T06:40:00.844Z,48.43
2022-08-05T06:43:05.702Z,47.65
2022-08-05T06:46:29.878Z,46.58
2022-08-05T06:50:01.597Z,46.28
2022-08-05T06:52:58.717Z,45.15
2022-08-05T06:56:06.281Z,44.73
2022-08-05T06:59:28.305Z,44.44
2022-08-05T07:02:45.396Z,44.48
2022-08-05T07:05:47.508Z,44.44
2022-08-05T07:08:55.067Z,44.51
2022-08-05T07:12:00.465Z,43.52
2022-08-05T07:15:34.761Z,42.99
2022-08-05T07:18:47.685Z,43.23
2022-08-05T07:22:01.143Z,42.50
2022-08-05T07:25:21.850Z,42.05
2022-08-05T07:28:27.350Z,40.34
2022-08-05T07:31:41.032Z,39.99
2022-08-05T07:34:57.962Z,40.04
2022-08-05T07:38:00.951Z,39.34
2022-08-05T07:42:09.440Z,38.76
2022-08-05T07:44:31.321Z,37.56
2022-08-05T07:47:42.318Z,36.31
2022-08-05T07:50:44.844Z,35.35
2022-08-05T07:53:50.414Z,35.37
2022-08-05T07:57:01.237Z,35.39
2022-08-05T08:00:16.267Z,34.91
2022-08-05T08:03:19.120Z,33.74
2022-08-05T08:06:23.788Z,33.75
2022-08-05T08:09:30.775Z,32.55
2022-08-05T08:12:49.314Z,30.41
2022-08-05T08:16:34.808Z,31.13
2022-08-05T08:20:20.938Z,30.20
2022-08-05T08:22:37.411Z,29.38
2022-08-05T08:26:00.953Z,29.28
2022-08-05T08:29:29.248Z,28.85
2022-08-05T08:32:27.914Z,27.72
2022-08-05T08:35:35.136Z,27.70
2022-08-05T08:38:43.245Z,25.86
2022-08-05T08:41:59.754Z,25.60
2022-08-05T08:45:19.057Z,25.00
2022-08-05T08:49:03.296Z,24.60
2022-08-05T08:52:13.665Z,24.94
2022-08-05T08:55:19.299Z,23.35
2022-08-05T08:58:37.458Z,23.02
2022-08-05T09:01:56.978Z,22.95
2022-08-05T09:05:17.787Z,22.92
2022-08-05T09:08:27.419Z,22.61
2022-08-05T09:11:51.672Z,22.84
2022-08-05T09:15:05.856Z,22.24
2022-08-05T09:18:09.523Z,22.10
2022-08-05T09:21:20.480Z,22.01
2022-08-05T09:24:24.297Z,22.05
2022-08-05T09:28:05.540Z,22.68
2022-08-05T09:31:22.592Z,22.53
2022-08-05T09:34:46.324Z,22.31
2022-08-05T09:38:11.991Z,22.29
2022-08-05T09:41:16.078Z,22.52
2022-08-05T09:44:36.584Z,22.14
2022-08-05T09:47:55.699Z,21.29
2022-08-05T09:51:14.953Z,21.59
2022-08-05T09:54:31.116Z,21.22
2022-08-05T09:57:43.306Z,21.72
2022-08-05T10:00:54.610Z,22.53
2022-08-05T10:04:03.225Z,21.38
2022-08-05T10:07:20.002Z,21.21
2022-08-05T10:10:38.548Z,21.75
2022-08-05T10:13:47.435Z,21.09
2022-08-05T10:16:52.563Z,21.64
2022-08-05T10:20:03.109Z,21.80
2022-08-05T10:23:08.918Z,21.29
2022-08-05T10:26:32.292Z,21.01
2022-08-05T10:30:41.006Z,21.64
2022-08-05T10:33:02.518Z,20.73
2022-08-05T10:36:06.530Z,21.50
2022-08-05T10:39:15.207Z,21.98
2022-08-05T10:42:33.958Z,21.59
2022-08-05T10:45:40.280Z,20.97
2022-08-05T10:48:52.605Z,21.14
2022-08-05T10:52:03.265Z,20.67
2022-08-05T10:55:11.000Z,21.79
2022-08-05T10:58:20.509Z,22.10
2022-08-05T11:01:54.823Z,20.84
2022-08-05T11:05:05.813Z,21.17
2022-08-05T11:08:36.546Z,20.70
2022-08-05T11:11:44.915Z,21.10
2022-08-05T11:15:19.393Z,21.43
2022-08-05T11:18:34.250Z,20.47
2022-08-05T11:21:48.838Z,20.52
2022-08-05T11:26:04.942Z,20.63
2022-08-05T11:28:54.391Z,20.14
2022-08-05T11:32:26.354Z,20.30
2022-08-05T11:36:02.766Z,20.41
2022-08-05T11:39:12.110Z,20.47
2022-08-05T11:42:18.380Z,21.28
2022-08-05T11:46:14.745Z,21.32
2022-08-05T11:48:43.465Z,20.51
2022-08-05T11:51:49.401Z,21.16
2022-08-05T11:54:54.996Z,21.03
2022-08-05T11:58:09.328Z,21.09
2022-08-05T12:01:19.061Z,21.10
2022-08-05T12:04:22.303Z,21.66
2022-08-05T12:08:09.360Z,21.14
2022-08-05T12:10:48.883Z,21.39
2022-08-05T12:14:07.553Z,21.07
2022-08-05T12:17:22.662Z,21.06
2022-08-05T12:20:38.441Z,20.93
2022-08-05T12:23:52.212Z,20.73
2022-08-05T12:26:54.478Z,21.44
2022-08-05T12:30:07.426Z,21.27
2022-08-05T12:33:27.427Z,21.60
2022-08-05T12:36:33.171Z,21.96
2022-08-05T12:39:38.582Z,21.50
2022-08-05T12:42:41.345Z,21.61
2022-08-05T12:45:54.191Z,21.18
2022-08-05T12:49:13.681Z,20.81
2022-08-05T12:52:23.842Z,20.94
2022-08-05T12:55:32.784Z,20.77
2022-08-05T12:58:49.211Z,20.75
2022-08-05T13:02:07.534Z,20.97
2022-08-05T13:05:12.706Z,21.03
2022-08-05T13:08:20.096Z,21.33
2022-08-05T13:11:25.538Z,21.24
2022-08-05T13:15:05.087Z,21.34
2022-08-05T13:18:07.968Z,20.83
2022-08-05T13:21:10.351Z,21.05
2022-08-05T13:24:15.202Z,20.99
2022-08-05T13:27:52.114Z,21.23
2022-08-05T13:30:54.900Z,20.87
2022-08-05T13:34:22.647Z,20.97
2022-08-05T13:37:34.482Z,21.18
2022-08-05T13:40:50.048Z,21.31
2022-08-05T13:43:55.234Z,21.51
2022-08-05T13:47:01.688Z,21.49
2022-08-05T13:50:11.226Z,21.87
2022-08-05T13:53:15.847Z,20.82
2022-08-05T13:56:19.043Z,21.23
2022-08-05T13:59:24.767Z,21.11
2022-08-05T14:02:29.709Z,21.22
2022-08-05T14:06:24.661Z,21.21
2022-08-05T14:08:55.758Z,20.98
2022-08-05T14:12:17.847Z,21.65
2022-08-05T14:16:07.314Z,21.08
2022-08-05T14:18:43.008Z,21.10
2022-08-05T14:22:08.712Z,21.02
2022-08-05T14:25:19.041Z,21.41
2022-08-05T14:28:26.970Z,21.27
2022-08-05T14:32:03.751Z,21.47
2022-08-05T14:34:53.200Z,21.38
2022-08-05T14:37:57.092Z,21.52
2022-08-05T14:41:06.382Z,21.69
2022-08-05T14:44:20.444Z,21.55
2022-08-05T14:48:02.820Z,21.61
2022-08-05T14:50:47.298Z,21.71
2022-08-05T14:54:26.497Z,21.67
2022-08-05T14:57:13.666Z,21.40
2022-08-05T15:00:16.052Z,21.75
2022-08-05T15:03:22.917Z,21.39
2022-08-05T15:06:27.962Z,21.20
2022-08-05T15:09:52.561Z,21.33
2022-08-05T15:13:00.964Z,21.51
2022-08-05T15:16:06.507Z,21.87
2022-08-05T15:19:23.210Z,21.50
2022-08-05T15:22:27.278Z,21.79
2022-08-05T15:25:51.712Z,21.64
2022-08-05T15:28:52.434Z,21.70
2022-08-05T15:31:54.530Z,21.71
2022-08-05T15:34:58.284Z,21.79
2022-08-05T15:38:32.325Z,21.87
2022-08-05T15:41:24.609Z,22.16
2022-08-05T15:44:46.281Z,21.72
2022-08-05T15:47:48.764Z,21.97
2022-08-05T15:50:57.277Z,21.87
2022-08-05T15:53:59.957Z,22.03
2022-08-05T15:57:03.229Z,22.01
2022-08-05T16:00:10.667Z,21.75
2022-08-05T16:03:13.696Z,21.71
2022-08-05T16:06:20.270Z,21.94
2022-08-05T16:09:24.715Z,21.94
2022-08-05T16:12:27.130Z,22.18
2022-08-05T16:15:32.333Z,21.61
2022-08-05T16:18:34.670Z,22.15
2022-08-05T16:21:59.326Z,22.17
2022-08-05T16:25:07.980Z,22.10
2022-08-05T16:28:13.584Z,22.42
2022-08-05T16:31:17.781Z,22.66
2022-08-05T16:34:23.041Z,22.10
2022-08-05T16:38:02.364Z,22.93
2022-08-05T16:40:55.010Z,22.31
2022-08-05T16:43:58.415Z,23.24
2022-08-05T16:47:03.697Z,23.12
2022-08-05T16:50:06.935Z,23.16
2022-08-05T16:53:12.568Z,23.09
2022-08-05T16:56:26.405Z,23.43
2022-08-05T16:59:30.622Z,23.93
2022-08-05T17:02:33.029Z,23.60
2022-08-05T17:05:37.049Z,23.82
2022-08-05T17:08:52.049Z,23.82
2022-08-05T17:11:59.723Z,24.70
2022-08-05T17:15:02.511Z,24.35
2022-08-05T17:18:05.359Z,24.64
2022-08-05T17:21:16.296Z,25.00
2022-08-05T17:24:35.118Z,25.54
2022-08-05T17:27:40.875Z,26.00
2022-08-05T17:30:51.810Z,26.38
2022-08-05T17:33:55.947Z,27.44
2022-08-05T17:37:00.532Z,27.51
2022-08-05T17:40:04.753Z,27.92
2022-08-05T17:43:12.767Z,28.91
2022-08-05T17:46:18.412Z,29.58
2022-08-05T17:49:21.056Z,30.29
2022-08-05T17:52:26.358Z,29.28
2022-08-05T17:55:37.376Z,30.70
2022-08-05T17:58:41.006Z,30.34
2022-08-05T18:01:50.386Z,29.62
2022-08-05T18:04:55.055Z,28.93
2022-08-05T18:07:57.470Z,29.54
2022-08-05T18:11:00.621Z,29.10
2022-08-05T18:14:13.253Z,29.59
2022-08-05T18:18:00.393Z,30.61
2022-08-05T18:20:38.460Z,30.38
2022-08-05T18:23:47.014Z,30.59
2022-08-05T18:26:49.468Z,31.31
2022-08-05T18:29:54.540Z,32.18
2022-08-05T18:33:00.418Z,31.80
2022-08-05T18:36:09.198Z,31.70
2022-08-05T18:39:41.823Z,31.53
2022-08-05T18:42:41.128Z,32.56
2022-08-05T18:45:43.964Z,31.93
2022-08-05T18:48:52.304Z,34.00
2022-08-05T18:52:13.087Z,32.87
2022-08-05T18:55:15.543Z,32.81
2022-08-05T18:58:18.558Z,34.03
2022-08-05T19:01:33.232Z,34.59
2022-08-05T19:05:01.722Z,35.31
2022-08-05T19:08:13.726Z,34.60
2022-08-05T19:11:20.408Z,34.77
2022-08-05T19:14:44.603Z,33.71
2022-08-05T19:18:08.382Z,34.10
2022-08-05T19:21:12.388Z,34.65
2022-08-05T19:24:14.484Z,34.62
2022-08-05T19:27:16.920Z,34.39
2022-08-05T19:30:21.835Z,34.56
2022-08-05T19:33:35.872Z,34.15
2022-08-05T19:36:38.814Z,33.26
2022-08-05T19:39:45.214Z,33.45
2022-08-05T19:43:00.836Z,33.44
2022-08-05T19:46:28.950Z,34.60
2022-08-05T19:49:30.935Z,35.18
2022-08-05T19:52:33.333Z,34.41
2022-08-05T19:56:13.687Z,33.58
2022-08-05T19:58:57.843Z,33.83
2022-08-05T20:02:20.016Z,34.00
2022-08-05T20:05:24.301Z,34.51
2022-08-05T20:08:27.073Z,35.12
2022-08-05T20:11:30.813Z,35.73
2022-08-05T20:14:39.875Z,36.29
2022-08-05T20:17:42.261Z,36.86
2022-08-05T20:20:46.773Z,36.91
2022-08-05T20:23:53.111Z,36.62
2022-08-05T20:26:55.550Z,36.76
2022-08-05T20:29:59.508Z,37.46
2022-08-05T20:33:02.214Z,37.59
2022-08-05T20:36:04.679Z,37.94
2022-08-05T20:39:06.845Z,38.47
2022-08-05T20:42:15.305Z,38.53
2022-08-05T20:45:23.943Z,39.28
2022-08-05T20:48:51.121Z,40.09
2022-08-05T20:51:54.975Z,39.53
2022-08-05T20:55:54.321Z,39.58
2022-08-05T20:58:19.787Z,40.20
2022-08-05T21:01:37.255Z,39.63
2022-08-05T21:04:40.674Z,40.03
2022-08-05T21:07:50.552Z,39.91
2022-08-05T21:10:54.469Z,40.64
2022-08-05T21:14:01.095Z,40.17
2022-08-05T21:17:05.108Z,39.97
2022-08-05T21:20:09.885Z,40.34
2022-08-05T21:23:12.880Z,40.94
2022-08-05T21:26:16.627Z,41.33
2022-08-05T21:29:19.865Z,41.83
2022-08-05T21:32:27.799Z,42.18
2022-08-05T21:35:43.954Z,42.10
2022-08-05T21:38:52.924Z,42.64
2022-08-05T21:42:01.965Z,42.68
2022-08-05T21:45:05.346Z,42.65
2022-08-05T21:48:13.576Z,42.78
2022-08-05T21:51:25.129Z,42.86
2022-08-05T21:54:40.476Z,43.64
2022-08-05T21:57:44.166Z,43.53
2022-08-05T22:00:51.269Z,43.68
2022-08-05T22:03:54.222Z,44.05
2022-08-05T22:06:57.049Z,44.12
2022-08-05T22:09:59.812Z,44.81
2022-08-05T22:13:08.912Z,45.31
2022-08-05T22:16:41.145Z,45.20
2022-08-05T22:19:57.414Z,44.69
2022-08-05T22:23:25.250Z,44.01
2022-08-05T22:27:06.921Z,44.52
2022-08-05T22:30:15.284Z,44.55
2022-08-05T22:33:19.420Z,45.05
2022-08-05T22:36:41.815Z,45.29
2022-08-05T22:39:45.216Z,45.63
2022-08-05T22:42:53.143Z,45.61
2022-08-05T22:46:01.770Z,45.74
2022-08-05T22:49:05.926Z,46.43
2022-08-05T22:52:13.832Z,46.94
2022-08-05T22:55:26.040Z,46.92
2022-08-05T22:58:28.757Z,47.07
2022-08-05T23:02:05.095Z,47.19
2022-08-05T23:04:53.660Z,46.61
2022-08-05T23:07:57.530Z,46.79
2022-08-05T23:10:59.603Z,47.03
2022-08-05T23:14:03.258Z,47.36
2022-08-05T23:17:24.359Z,47.06
2022-08-05T23:20:37.403Z,47.71
2022-08-05T23:23:39.865Z,48.00
2022-08-05T23:26:44.148Z,49.39
2022-08-05T23:29:50.511Z,48.88
2022-08-05T23:32:53.029Z,49.00
2022-08-05T23:35:56.382Z,49.18
2022-08-05T23:38:59.049Z,49.19
2022-08-05T23:42:01.407Z,49.53
2022-08-05T23:45:05.397Z,49.47
2022-08-05T23:48:16.605Z,49.50
2022-08-05T23:51:22.110Z,49.76
2022-08-05T23:54:30.452Z,49.74
2022-08-05T23:57:36.760Z,49.92
